createdAt,value
2022-11-24T00:02:10.632Z,98.30
2022-11-24T00:05:12.269Z,98.30
2022-11-24T00:08:13.948Z,98.30
2022-11-24T00:11:24.739Z,98.30
2022-11-24T00:14:26.502Z,97.50
2022-11-24T00:17:29.345Z,98.20
2022-11-24T00:20:30.898Z,98.20
2022-11-24T00:23:33.287Z,98.20
2022-11-24T00:26:37.331Z,98.30
2022-11-24T00:29:39.023Z,98.20
2022-11-24T00:32:40.542Z,98.10
2022-11-24T00:35:42.038Z,98.30
2022-11-24T00:38:44.256Z,98.20
2022-11-24T00:41:45.812Z,98.30
2022-11-24T00:44:47.416Z,98.30
2022-11-24T00:47:49.145Z,98.90
2022-11-24T00:51:06.336Z,98.30
2022-11-24T00:54:07.889Z,98.40
2022-11-24T00:57:09.396Z,98.20
2022-11-24T01:00:11.209Z,98.30
2022-11-24T01:03:13.679Z,98.20
2022-11-24T01:06:18.337Z,98.30
2022-11-24T01:09:19.862Z,98.40
2022-11-24T01:12:21.423Z,98.30
2022-11-24T01:15:23.298Z,98.40
2022-11-24T01:18:24.836Z,98.20
2022-11-24T01:21:26.413Z,98.40
2022-11-24T01:24:27.960Z,98.40
2022-11-24T01:27:29.494Z,98.30
2022-11-24T01:30:31.054Z,98.90
2022-11-24T01:33:33.942Z,98.20
2022-11-24T01:36:36.518Z,98.40
2022-11-24T01:39:38.142Z,98.20
2022-11-24T01:42:53.122Z,98.20
2022-11-24T01:45:55.535Z,98.40
2022-11-24T01:48:59.871Z,98.30
2022-11-24T01:52:08.867Z,98.20
2022-11-24T01:55:18.128Z,98.20
2022-11-24T01:58:23.902Z,98.10
2022-11-24T02:01:26.113Z,98.10
2022-11-24T02:04:32.769Z,98.00
2022-11-24T02:07:36.371Z,98.00
2022-11-24T02:10:38.689Z,98.00
2022-11-24T02:13:42.134Z,98.10
2022-11-24T02:16:49.346Z,98.20
2022-11-24T02:20:03.976Z,98.20
2022-11-24T02:23:18.537Z,98.30
2022-11-24T02:26:35.117Z,97.50
2022-11-24T02:29:37.299Z,98.30
2022-11-24T02:32:41.871Z,98.10
2022-11-24T02:35:43.979Z,98.10
2022-11-24T02:38:45.516Z,97.80
2022-11-24T02:41:51.597Z,97.90
2022-11-24T02:44:59.107Z,98.00
2022-11-24T02:48:00.901Z,97.70
2022-11-24T02:51:02.737Z,98.20
2022-11-24T02:54:04.343Z,98.20
2022-11-24T02:57:05.956Z,98.30
2022-11-24T03:00:08.369Z,98.30
2022-11-24T03:03:10.227Z,98.00
2022-11-24T03:06:11.757Z,98.20
2022-11-24T03:09:13.335Z,98.20
2022-11-24T03:12:15.024Z,98.10
2022-11-24T03:15:16.604Z,98.10
2022-11-24T03:18:18.115Z,98.00
2022-11-24T03:21:19.917Z,97.90
2022-11-24T03:24:21.565Z,97.90
2022-11-24T03:27:23.101Z,98.00
2022-11-24T03:30:24.808Z,97.80
2022-11-24T03:33:26.321Z,97.90
2022-11-24T03:36:28.063Z,98.10
2022-11-24T03:39:29.799Z,98.00
2022-11-24T03:42:31.361Z,98.30
2022-11-24T03:45:48.313Z,98.40
2022-11-24T03:48:50.152Z,98.20
2022-11-24T03:51:51.792Z,98.40
2022-11-24T03:54:53.693Z,98.20
2022-11-24T03:57:55.218Z,98.10
2022-11-24T04:00:57.680Z,98.30
2022-11-24T04:03:59.180Z,98.10
2022-11-24T04:07:00.764Z,98.00
2022-11-24T04:10:02.680Z,97.90
2022-11-24T04:13:10.151Z,97.80
2022-11-24T04:16:11.734Z,97.80
2022-11-24T04:19:13.439Z,97.70
2022-11-24T04:22:14.971Z,97.60
2022-11-24T04:25:17.376Z,97.70
2022-11-24T04:28:18.924Z,97.70
2022-11-24T04:31:20.585Z,97.70
2022-11-24T04:34:22.347Z,97.80
2022-11-24T04:37:24.002Z,97.80
2022-11-24T04:40:25.571Z,97.80
2022-11-24T04:43:27.183Z,97.80
2022-11-24T04:46:28.735Z,97.90
2022-11-24T04:49:30.393Z,98.00
2022-11-24T04:52:31.998Z,98.00
2022-11-24T04:55:33.515Z,98.10
2022-11-24T04:58:35.472Z,98.10
2022-11-24T05:01:37.007Z,98.10
2022-11-24T05:04:39.109Z,98.00
2022-11-24T05:07:40.806Z,98.00
2022-11-24T05:10:42.927Z,97.90
2022-11-24T05:13:44.954Z,98.10
2022-11-24T05:16:46.632Z,98.10
2022-11-24T05:19:48.162Z,97.90
2022-11-24T05:22:49.749Z,98.40
2022-11-24T05:25:51.607Z,97.90
2022-11-24T05:28:53.466Z,97.70
2022-11-24T05:31:55.004Z,97.70
2022-11-24T05:34:56.685Z,97.80
2022-11-24T05:37:58.994Z,98.10
2022-11-24T05:41:05.265Z,98.00
2022-11-24T05:44:06.866Z,98.30
2022-11-24T05:47:08.573Z,98.00
2022-11-24T05:50:12.735Z,97.90
2022-11-24T05:53:14.376Z,98.10
2022-11-24T05:56:15.885Z,97.90
2022-11-24T05:59:17.584Z,97.90
2022-11-24T06:02:19.317Z,97.50
2022-11-24T06:05:21.046Z,97.90
2022-11-24T06:08:26.833Z,98.00
2022-11-24T06:11:32.315Z,98.00
2022-11-24T06:14:34.329Z,98.10
2022-11-24T06:17:36.060Z,98.10
2022-11-24T06:20:37.715Z,98.70
2022-11-24T06:23:39.930Z,98.10
2022-11-24T06:26:41.675Z,98.00
2022-11-24T06:29:43.513Z,98.00
2022-11-24T06:32:49.464Z,98.20
2022-11-24T06:35:52.080Z,98.20
2022-11-24T06:38:53.887Z,97.50
2022-11-24T06:41:55.422Z,98.20
2022-11-24T06:44:56.917Z,98.20
2022-11-24T06:47:58.532Z,98.20
2022-11-24T06:51:01.834Z,98.40
2022-11-24T06:54:07.141Z,98.30
2022-11-24T06:57:09.211Z,98.40
2022-11-24T07:00:11.239Z,97.60
2022-11-24T07:03:17.045Z,98.20
2022-11-24T07:06:19.583Z,98.40
2022-11-24T07:09:21.108Z,98.20
2022-11-24T07:12:24.139Z,98.30
2022-11-24T07:15:26.021Z,98.20
2022-11-24T07:18:27.666Z,98.10
2022-11-24T07:21:30.715Z,97.90
2022-11-24T07:24:32.504Z,97.80
2022-11-24T07:27:34.640Z,97.80
2022-11-24T07:30:36.155Z,96.90
2022-11-24T07:33:38.160Z,97.60
2022-11-24T07:36:39.676Z,97.50
2022-11-24T07:39:41.227Z,97.50
2022-11-24T07:42:42.747Z,97.50
2022-11-24T07:45:44.550Z,97.40
2022-11-24T07:48:46.452Z,97.20
2022-11-24T07:51:48.224Z,97.40
2022-11-24T07:54:49.717Z,97.60
2022-11-24T07:57:51.304Z,97.50
2022-11-24T08:00:52.801Z,97.20
2022-11-24T08:03:54.476Z,97.40
2022-11-24T08:06:56.044Z,97.60
2022-11-24T08:09:57.653Z,97.30
2022-11-24T08:13:01.930Z,97.30
2022-11-24T08:16:08.286Z,97.40
2022-11-24T08:19:11.812Z,96.40
2022-11-24T08:22:13.341Z,97.10
2022-11-24T08:25:15.229Z,97.30
2022-11-24T08:28:16.828Z,97.00
2022-11-24T08:31:19.093Z,97.10
2022-11-24T08:34:20.729Z,97.00
2022-11-24T08:37:22.398Z,96.90
2022-11-24T08:40:24.078Z,97.00
2022-11-24T08:43:25.642Z,97.10
2022-11-24T08:46:27.408Z,97.20
2022-11-24T08:49:29.482Z,97.20
2022-11-24T08:52:31.040Z,97.30
2022-11-24T08:55:32.586Z,97.50
2022-11-24T08:58:34.806Z,97.40
2022-11-24T09:01:36.537Z,97.50
2022-11-24T09:04:38.330Z,97.40
2022-11-24T09:07:40.087Z,97.60
2022-11-24T09:10:41.942Z,97.40
2022-11-24T09:13:43.844Z,97.30
2022-11-24T09:16:45.410Z,97.40
2022-11-24T09:19:46.923Z,97.20
2022-11-24T09:22:48.609Z,97.20
2022-11-24T09:25:50.156Z,97.00
2022-11-24T09:28:54.523Z,97.10
2022-11-24T09:31:56.129Z,97.00
2022-11-24T09:34:57.787Z,97.00
2022-11-24T09:37:59.314Z,97.00
2022-11-24T09:41:18.921Z,96.90
2022-11-24T09:44:58.262Z,96.30
2022-11-24T09:48:10.879Z,96.20
2022-11-24T09:51:15.233Z,96.20
2022-11-24T09:54:20.396Z,97.00
2022-11-24T09:57:26.258Z,97.10
2022-11-24T10:00:27.832Z,96.90
2022-11-24T10:03:37.418Z,96.90
2022-11-24T10:06:48.351Z,97.00
2022-11-24T10:10:14.066Z,96.90
2022-11-24T10:13:28.292Z,96.10
2022-11-24T10:16:45.308Z,96.10
2022-11-24T10:19:54.476Z,95.90
2022-11-24T10:23:39.479Z,96.60
2022-11-24T10:27:23.791Z,95.40
2022-11-24T10:30:29.358Z,95.80
2022-11-24T10:33:31.231Z,96.40
2022-11-24T10:36:57.473Z,96.40
2022-11-24T10:40:21.317Z,95.70
2022-11-24T10:43:31.426Z,96.20
2022-11-24T10:46:39.038Z,96.50
2022-11-24T10:49:41.642Z,96.10
2022-11-24T10:52:47.721Z,96.20
2022-11-24T10:55:55.413Z,96.10
2022-11-24T10:58:56.959Z,96.30
2022-11-24T11:01:59.659Z,96.40
2022-11-24T11:05:26.866Z,96.40
2022-11-24T11:08:30.189Z,95.50
2022-11-24T11:11:32.366Z,96.50
2022-11-24T11:14:37.802Z,96.40
2022-11-24T11:17:40.722Z,96.10
2022-11-24T11:20:52.255Z,96.50
2022-11-24T11:23:54.266Z,96.60
2022-11-24T11:27:04.321Z,96.50
2022-11-24T11:34:04.108Z,95.70
2022-11-24T11:37:07.169Z,96.40
2022-11-24T11:40:17.049Z,96.90
2022-11-24T11:43:26.628Z,96.50
2022-11-24T11:46:32.543Z,96.40
2022-11-24T11:49:37.415Z,96.30
2022-11-24T11:53:00.528Z,96.10
2022-11-24T11:56:14.599Z,96.00
2022-11-24T11:59:18.883Z,95.30
2022-11-24T12:02:32.421Z,96.70
2022-11-24T12:05:42.032Z,96.20
2022-11-24T12:09:19.710Z,96.00
2022-11-24T12:12:37.214Z,95.50
2022-11-24T12:15:54.694Z,95.50
2022-11-24T12:19:03.627Z,95.40
2022-11-24T12:22:27.678Z,96.20
2022-11-24T12:25:38.086Z,95.40
2022-11-24T12:29:13.997Z,96.10
2022-11-24T12:32:34.505Z,95.40
2022-11-24T12:35:48.652Z,96.10
2022-11-24T12:39:13.996Z,95.10
2022-11-24T12:42:48.666Z,95.10
2022-11-24T12:45:52.895Z,95.00
2022-11-24T12:49:03.168Z,95.80
2022-11-24T12:52:28.805Z,95.00
2022-11-24T12:55:33.843Z,95.80
2022-11-24T12:58:57.935Z,95.70
2022-11-24T13:02:24.303Z,95.60
2022-11-24T13:05:41.323Z,95.00
2022-11-24T13:08:43.298Z,95.00
2022-11-24T13:11:45.998Z,95.50
2022-11-24T13:14:49.024Z,95.60
2022-11-24T13:21:51.957Z,95.80
2022-11-24T13:25:15.494Z,95.10
2022-11-24T13:29:05.763Z,95.20
2022-11-24T13:32:14.769Z,95.00
2022-11-24T13:35:16.489Z,95.80
2022-11-24T13:38:46.103Z,95.80
2022-11-24T13:42:00.258Z,95.00
2022-11-24T13:45:04.506Z,95.70
2022-11-24T13:48:21.978Z,95.80
2022-11-24T13:51:25.089Z,95.80
2022-11-24T13:54:28.575Z,95.80
2022-11-24T13:57:39.648Z,95.90
2022-11-24T14:00:59.911Z,95.90
2022-11-24T14:04:30.450Z,95.90
2022-11-24T14:07:33.032Z,96.00
2022-11-24T14:10:37.286Z,96.00
2022-11-24T14:13:38.890Z,96.00
2022-11-24T14:16:40.412Z,95.90
2022-11-24T14:19:44.627Z,96.00
2022-11-24T14:22:46.263Z,96.30
2022-11-24T14:25:49.722Z,95.90
2022-11-24T14:28:52.285Z,96.00
2022-11-24T14:31:59.225Z,96.10
2022-11-24T14:35:00.861Z,96.10
2022-11-24T14:38:05.721Z,96.00
2022-11-24T14:41:28.050Z,96.10
2022-11-24T14:44:41.374Z,95.40
2022-11-24T14:47:45.394Z,95.40
2022-11-24T14:50:47.158Z,96.30
2022-11-24T14:53:52.134Z,96.30
2022-11-24T14:57:04.160Z,96.00
2022-11-24T15:00:08.160Z,95.60
2022-11-24T15:03:17.942Z,96.20
2022-11-24T15:06:22.902Z,96.90
2022-11-24T15:09:31.089Z,96.50
2022-11-24T15:12:43.155Z,95.80
2022-11-24T15:16:01.796Z,97.00
2022-11-24T15:19:06.686Z,96.70
2022-11-24T15:22:46.583Z,96.90
2022-11-24T15:25:49.783Z,96.80
2022-11-24T15:28:51.400Z,96.90
2022-11-24T15:31:53.300Z,96.90
2022-11-24T15:34:54.918Z,97.00
2022-11-24T15:37:56.463Z,97.10
2022-11-24T15:41:00.081Z,97.10
2022-11-24T15:44:01.728Z,97.70
2022-11-24T15:47:03.309Z,97.20
2022-11-24T15:50:05.426Z,97.10
2022-11-24T15:53:31.651Z,96.90
2022-11-24T15:56:37.669Z,96.30
2022-11-24T15:59:39.217Z,96.30
2022-11-24T16:02:40.800Z,97.10
2022-11-24T16:05:42.505Z,97.10
2022-11-24T16:08:44.210Z,97.10
2022-11-24T16:11:45.740Z,97.10
2022-11-24T16:14:47.514Z,97.40
2022-11-24T16:17:49.272Z,97.10
2022-11-24T16:20:50.846Z,97.80
2022-11-24T16:23:52.413Z,97.20
2022-11-24T16:26:53.995Z,97.10
2022-11-24T16:29:55.689Z,97.10
2022-11-24T16:32:57.309Z,97.00
2022-11-24T16:35:58.994Z,97.30
2022-11-24T16:39:00.605Z,97.20
2022-11-24T16:42:02.483Z,97.30
2022-11-24T16:45:04.359Z,96.90
2022-11-24T16:48:06.037Z,97.10
2022-11-24T16:51:11.875Z,97.20
2022-11-24T16:54:13.393Z,97.50
2022-11-24T16:57:15.626Z,97.10
2022-11-24T17:00:17.732Z,96.90
2022-11-24T17:03:19.483Z,96.70
2022-11-24T17:06:21.436Z,96.80
2022-11-24T17:09:22.951Z,96.80
2022-11-24T17:12:24.482Z,97.00
2022-11-24T17:15:33.617Z,96.80
2022-11-24T17:18:36.005Z,96.80
2022-11-24T17:21:37.636Z,96.90
2022-11-24T17:24:39.171Z,96.70
2022-11-24T17:27:44.883Z,96.60
2022-11-24T17:30:48.197Z,96.70
2022-11-24T17:33:52.848Z,96.00
2022-11-24T17:36:54.441Z,96.60
2022-11-24T17:40:26.805Z,96.50
2022-11-24T17:43:30.148Z,96.90
2022-11-24T17:46:31.962Z,96.80
2022-11-24T17:49:33.519Z,96.70
2022-11-24T17:52:35.069Z,96.60
2022-11-24T17:55:36.615Z,96.50
2022-11-24T17:58:42.865Z,96.50
2022-11-24T18:06:18.398Z,95.80
2022-11-24T18:16:09.523Z,95.30
2022-11-24T18:19:11.947Z,96.60
2022-11-24T18:22:13.477Z,96.50
2022-11-24T18:25:15.082Z,96.40
2022-11-24T18:28:16.592Z,96.30
2022-11-24T18:31:22.333Z,96.30
2022-11-24T18:34:26.746Z,95.60
2022-11-24T18:37:30.461Z,95.80
2022-11-24T18:40:32.443Z,96.40
2022-11-24T18:43:36.150Z,96.70
2022-11-24T18:46:38.041Z,96.40
2022-11-24T18:49:39.612Z,96.50
2022-11-24T18:52:41.348Z,96.40
2022-11-24T18:55:42.910Z,95.90
2022-11-24T18:58:44.944Z,96.30
2022-11-24T19:01:46.944Z,96.40
2022-11-24T19:04:48.545Z,96.30
2022-11-24T19:07:50.183Z,96.40
2022-11-24T19:10:51.736Z,96.40
2022-11-24T19:13:53.556Z,96.50
2022-11-24T19:16:55.180Z,96.40
2022-11-24T19:19:56.793Z,96.50
2022-11-24T19:22:58.319Z,96.50
2022-11-24T19:26:01.714Z,96.40
2022-11-24T19:29:04.746Z,96.40
2022-11-24T19:32:06.374Z,96.40
2022-11-24T19:35:08.202Z,96.50
2022-11-24T19:38:14.723Z,96.40
2022-11-24T19:41:19.388Z,96.30
2022-11-24T19:44:23.981Z,96.40
2022-11-24T19:47:25.550Z,96.60
2022-11-24T19:50:27.072Z,96.20
2022-11-24T19:53:29.880Z,96.10
2022-11-24T19:56:34.677Z,96.20
2022-11-24T19:59:36.252Z,96.20
2022-11-24T20:02:38.044Z,96.30
2022-11-24T20:05:39.713Z,96.20
2022-11-24T20:08:42.607Z,96.30
2022-11-24T20:11:44.596Z,96.30
2022-11-24T20:14:46.118Z,96.20
2022-11-24T20:17:47.642Z,96.30
2022-11-24T20:20:49.172Z,96.20
2022-11-24T20:23:56.721Z,98.70
2022-11-24T20:27:00.068Z,96.40
2022-11-24T20:30:01.821Z,96.30
2022-11-24T20:33:03.699Z,96.30
2022-11-24T20:36:10.956Z,95.80
2022-11-24T20:39:18.619Z,96.70
2022-11-24T20:42:22.627Z,96.30
2022-11-24T20:45:24.212Z,96.30
2022-11-24T20:48:25.747Z,96.20
2022-11-24T20:51:33.386Z,96.30
2022-11-24T20:54:35.251Z,96.20
2022-11-24T20:57:36.855Z,95.90
2022-11-24T21:00:38.441Z,96.20
2022-11-24T21:03:43.287Z,96.00
2022-11-24T21:06:52.959Z,96.10
2022-11-24T21:09:54.479Z,96.20
2022-11-24T21:12:56.040Z,96.10
2022-11-24T21:15:57.713Z,96.20
2022-11-24T21:19:02.107Z,96.10
2022-11-24T21:22:03.654Z,96.20
2022-11-24T21:25:05.462Z,96.10
2022-11-24T21:28:08.055Z,96.10
2022-11-24T21:31:11.988Z,96.10
2022-11-24T21:34:15.808Z,96.10
2022-11-24T21:37:18.187Z,96.20
2022-11-24T21:40:19.719Z,96.10
2022-11-24T21:43:21.252Z,96.20
2022-11-24T21:46:23.786Z,96.10
2022-11-24T21:49:25.500Z,96.20
2022-11-24T21:52:26.996Z,96.10
2022-11-24T21:55:28.522Z,96.10
2022-11-24T21:58:30.093Z,96.10
2022-11-24T22:01:31.707Z,96.10
2022-11-24T22:04:33.620Z,96.20
2022-11-24T22:07:35.387Z,96.10
2022-11-24T22:10:37.057Z,96.10
2022-11-24T22:13:38.994Z,95.90
2022-11-24T22:16:40.728Z,96.00
2022-11-24T22:19:42.317Z,96.00
2022-11-24T22:22:48.177Z,95.90
2022-11-24T22:25:49.742Z,96.10
2022-11-24T22:28:52.060Z,96.00
2022-11-24T22:31:53.652Z,96.00
2022-11-24T22:34:55.183Z,96.10
2022-11-24T22:37:56.741Z,96.00
2022-11-24T22:41:08.620Z,96.10
2022-11-24T22:44:10.175Z,95.80
2022-11-24T22:47:11.698Z,95.70
2022-11-24T22:50:13.868Z,95.80
2022-11-24T22:53:15.399Z,95.50
2022-11-24T22:56:17.621Z,95.70
2022-11-24T22:59:19.163Z,95.70
2022-11-24T23:02:20.792Z,95.70
2022-11-24T23:05:22.316Z,95.80
2022-11-24T23:08:23.863Z,95.80
2022-11-24T23:11:37.206Z,95.80
2022-11-24T23:14:39.450Z,95.90
2022-11-24T23:17:41.163Z,95.80
2022-11-24T23:20:42.662Z,95.80
2022-11-24T23:23:44.794Z,95.90
2022-11-24T23:26:46.326Z,95.70
2022-11-24T23:29:47.854Z,95.90
2022-11-24T23:32:49.367Z,95.80
2022-11-24T23:35:50.857Z,95.70
2022-11-24T23:38:52.723Z,95.80
2022-11-24T23:41:54.232Z,95.80
2022-11-24T23:44:55.760Z,95.90
2022-11-24T23:47:57.280Z,95.80
2022-11-24T23:51:11.231Z,96.00
2022-11-24T23:54:12.832Z,95.20
2022-11-24T23:57:14.326Z,96.00
